sensor_id;sensor_type;location;lat;lon;timestamp;pressure;altitude;pressure_sealevel;temperature;humidity
62111;BME280;48102;47.526;19.072;2022-12-16T04:47:58;99289.94;;;1.96;100.00
62111;BME280;48102;47.526;19.072;2022-12-16T04:51:20;99286.66;;;1.91;100.00
62111;BME280;48102;47.526;19.072;2022-12-16T04:54:41;99291.63;;;1.97;100.00
62111;BME280;48102;47.526;19.072;2022-12-16T04:58:03;99285.34;;;2.05;100.00
62111;BME280;48102;47.526;19.072;2022-12-16T05:01:24;99295.59;;;2.09;100.00
62111;BME280;48102;47.526;19.072;2022-12-16T05:04:46;99288.72;;;2.08;100.00
62111;BME280;48102;47.526;19.072;2022-12-16T05:08:07;99285.91;;;2.14;100.00
62111;BME280;48102;47.526;19.072;2022-12-16T05:11:29;99294.38;;;2.21;100.00
62111;BME280;48102;47.526;19.072;2022-12-16T05:14:51;99290.09;;;2.18;100.00
62111;BME280;48102;47.526;19.072;2022-12-16T05:18:16;99278.66;;;2.24;100.00
62111;BME280;48102;47.526;19.072;2022-12-16T05:21:37;99260.28;;;2.30;100.00
62111;BME280;48102;47.526;19.072;2022-12-16T05:24:59;99261.66;;;2.40;100.00
62111;BME280;48102;47.526;19.072;2022-12-16T05:28:20;99271.19;;;2.40;100.00
62111;BME280;48102;47.526;19.072;2022-12-16T05:31:41;99255.66;;;2.38;100.00
62111;BME280;48102;47.526;19.072;2022-12-16T05:35:02;99252.94;;;2.41;100.00
62111;BME280;48102;47.526;19.072;2022-12-16T05:38:24;99264.91;;;2.47;100.00
62111;BME280;48102;47.526;19.072;2022-12-16T05:41:45;99273.66;;;2.44;100.00
62111;BME280;48102;47.526;19.072;2022-12-16T05:45:07;99271.88;;;2.45;100.00
62111;BME280;48102;47.526;19.072;2022-12-16T05:48:28;99264.06;;;2.46;100.00
62111;BME280;48102;47.526;19.072;2022-12-16T05:51:50;99271.63;;;2.53;100.00
62111;BME280;48102;47.526;19.072;2022-12-16T05:55:11;99268.72;;;2.62;100.00
62111;BME280;48102;47.526;19.072;2022-12-16T05:58:35;99260.13;;;2.60;100.00
62111;BME280;48102;47.526;19.072;2022-12-16T06:01:57;99262.66;;;2.61;100.00
62111;BME280;48102;47.526;19.072;2022-12-16T06:05:18;99269.03;;;2.53;100.00
62111;BME280;48102;47.526;19.072;2022-12-16T06:08:39;99270.72;;;2.54;100.00
62111;BME280;48102;47.526;19.072;2022-12-16T06:12:01;99269.72;;;2.58;100.00
62111;BME280;48102;47.526;19.072;2022-12-16T06:15:22;99276.31;;;2.68;100.00
62111;BME280;48102;47.526;19.072;2022-12-16T06:18:43;99277.09;;;2.70;100.00
62111;BME280;48102;47.526;19.072;2022-12-16T06:22:05;99278.59;;;2.77;100.00
62111;BME280;48102;47.526;19.072;2022-12-16T06:25:26;99277.53;;;2.83;100.00
62111;BME280;48102;47.526;19.072;2022-12-16T06:29:01;99275.69;;;2.85;100.00
62111;BME280;48102;47.526;19.072;2022-12-16T06:32:23;99274.69;;;2.89;100.00
62111;BME280;48102;47.526;19.072;2022-12-16T06:35:44;99285.00;;;2.92;100.00
62111;BME280;48102;47.526;19.072;2022-12-16T06:39:05;99283.06;;;2.97;100.00
62111;BME280;48102;47.526;19.072;2022-12-16T06:42:26;99275.44;;;2.92;100.00
62111;BME280;48102;47.526;19.072;2022-12-16T06:45:48;99285.41;;;3.05;100.00
62111;BME280;48102;47.526;19.072;2022-12-16T06:49:10;99284.66;;;3.01;100.00
62111;BME280;48102;47.526;19.072;2022-12-16T06:52:48;99287.41;;;2.98;100.00
62111;BME280;48102;47.526;19.072;2022-12-16T06:56:09;99280.47;;;2.97;100.00
62111;BME280;48102;47.526;19.072;2022-12-16T06:59:32;99283.22;;;2.94;100.00
62111;BME280;48102;47.526;19.072;2022-12-16T07:02:53;99277.94;;;2.95;100.00
62111;BME280;48102;47.526;19.072;2022-12-16T07:06:17;99279.38;;;3.04;100.00
62111;BME280;48102;47.526;19.072;2022-12-16T07:09:39;99300.09;;;3.07;100.00
62111;BME280;48102;47.526;19.072;2022-12-16T07:13:01;99305.22;;;3.09;100.00
62111;BME280;48102;47.526;19.072;2022-12-16T07:16:22;99294.72;;;3.12;100.00
62111;BME280;48102;47.526;19.072;2022-12-16T07:19:44;99288.59;;;3.13;100.00
62111;BME280;48102;47.526;19.072;2022-12-16T07:23:05;99286.66;;;3.18;100.00
62111;BME280;48102;47.526;19.072;2022-12-16T07:26:27;99288.94;;;3.27;100.00
62111;BME280;48102;47.526;19.072;2022-12-16T07:29:48;99288.53;;;3.38;100.00
62111;BME280;48102;47.526;19.072;2022-12-16T07:33:09;99291.75;;;3.44;100.00
62111;BME280;48102;47.526;19.072;2022-12-16T07:36:31;99292.66;;;3.43;100.00
62111;BME280;48102;47.526;19.072;2022-12-16T07:39:52;99292.41;;;3.49;100.00
62111;BME280;48102;47.526;19.072;2022-12-16T07:43:13;99307.91;;;3.54;100.00
62111;BME280;48102;47.526;19.072;2022-12-16T07:46:36;99310.34;;;3.59;100.00
62111;BME280;48102;47.526;19.072;2022-12-16T07:49:57;99307.41;;;3.66;100.00
62111;BME280;48102;47.526;19.072;2022-12-16T07:53:19;99309.06;;;3.69;100.00
62111;BME280;48102;47.526;19.072;2022-12-16T07:56:40;99297.63;;;3.73;100.00
62111;BME280;48102;47.526;19.072;2022-12-16T08:00:03;99308.78;;;3.76;100.00
62111;BME280;48102;47.526;19.072;2022-12-16T08:03:31;99308.44;;;3.84;100.00
62111;BME280;48102;47.526;19.072;2022-12-16T08:06:52;99306.41;;;3.92;100.00
62111;BME280;48102;47.526;19.072;2022-12-16T08:10:14;99296.03;;;3.91;100.00
62111;BME280;48102;47.526;19.072;2022-12-16T08:13:35;99299.94;;;4.02;100.00
62111;BME280;48102;47.526;19.072;2022-12-16T08:16:57;99301.13;;;4.16;100.00
62111;BME280;48102;47.526;19.072;2022-12-16T08:20:19;99300.72;;;4.47;100.00
62111;BME280;48102;47.526;19.072;2022-12-16T08:23:42;99305.47;;;4.58;100.00
62111;BME280;48102;47.526;19.072;2022-12-16T08:27:04;99307.81;;;4.43;100.00
62111;BME280;48102;47.526;19.072;2022-12-16T08:30:25;99294.31;;;4.34;100.00
62111;BME280;48102;47.526;19.072;2022-12-16T08:33:47;99291.00;;;4.30;100.00
62111;BME280;48102;47.526;19.072;2022-12-16T08:37:09;99289.38;;;4.27;100.00
62111;BME280;48102;47.526;19.072;2022-12-16T08:40:30;99293.78;;;4.25;100.00
62111;BME280;48102;47.526;19.072;2022-12-16T08:43:52;99298.22;;;4.23;100.00
62111;BME280;48102;47.526;19.072;2022-12-16T08:47:13;99319.19;;;4.42;100.00
62111;BME280;48102;47.526;19.072;2022-12-16T08:50:35;99328.00;;;4.60;100.00
62111;BME280;48102;47.526;19.072;2022-12-16T08:53:56;99330.19;;;4.71;100.00
62111;BME280;48102;47.526;19.072;2022-12-16T08:57:18;99327.59;;;4.69;100.00
62111;BME280;48102;47.526;19.072;2022-12-16T09:00:39;99327.06;;;4.61;100.00
62111;BME280;48102;47.526;19.072;2022-12-16T09:04:08;99328.47;;;4.70;100.00
62111;BME280;48102;47.526;19.072;2022-12-16T09:07:30;99330.41;;;4.65;100.00
62111;BME280;48102;47.526;19.072;2022-12-16T09:10:51;99339.03;;;4.67;100.00
62111;BME280;48102;47.526;19.072;2022-12-16T09:14:12;99349.09;;;4.76;100.00
62111;BME280;48102;47.526;19.072;2022-12-16T09:17:34;99349.12;;;4.54;100.00
62111;BME280;48102;47.526;19.072;2022-12-16T09:20:57;99342.34;;;4.70;100.00
62111;BME280;48102;47.526;19.072;2022-12-16T09:24:18;99342.34;;;4.70;100.00
62111;BME280;48102;47.526;19.072;2022-12-16T09:27:39;99339.16;;;4.64;100.00
62111;BME280;48102;47.526;19.072;2022-12-16T09:31:01;99340.13;;;4.61;100.00
62111;BME280;48102;47.526;19.072;2022-12-16T09:34:22;99347.38;;;4.55;100.00
62111;BME280;48102;47.526;19.072;2022-12-16T09:37:47;99346.19;;;4.62;100.00
62111;BME280;48102;47.526;19.072;2022-12-16T09:42:11;99354.97;;;5.01;100.00
62111;BME280;48102;47.526;19.072;2022-12-16T09:49:46;99357.44;;;5.25;100.00
62111;BME280;48102;47.526;19.072;2022-12-16T09:53:11;99383.34;;;5.29;100.00
62111;BME280;48102;47.526;19.072;2022-12-16T09:56:36;99397.84;;;5.16;100.00
62111;BME280;48102;47.526;19.072;2022-12-16T10:00:05;99391.37;;;5.04;100.00
62111;BME280;48102;47.526;19.072;2022-12-16T10:03:34;99368.06;;;5.00;100.00
62111;BME280;48102;47.526;19.072;2022-12-16T10:06:59;99365.03;;;5.11;100.00
62111;BME280;48102;47.526;19.072;2022-12-16T10:10:23;99370.47;;;5.25;100.00
62111;BME280;48102;47.526;19.072;2022-12-16T10:17:24;99383.84;;;5.38;100.00
62111;BME280;48102;47.526;19.072;2022-12-16T10:20:50;99385.75;;;5.14;100.00
62111;BME280;48102;47.526;19.072;2022-12-16T10:28:43;99387.53;;;4.93;100.00
62111;BME280;48102;47.526;19.072;2022-12-16T10:35:48;99400.19;;;5.02;100.00
62111;BME280;48102;47.526;19.072;2022-12-16T10:39:34;99389.16;;;5.16;100.00
62111;BME280;48102;47.526;19.072;2022-12-16T10:43:01;99402.34;;;5.13;100.00
62111;BME280;48102;47.526;19.072;2022-12-16T10:46:27;99402.66;;;5.05;100.00
62111;BME280;48102;47.526;19.072;2022-12-16T10:49:52;99399.72;;;5.13;100.00
62111;BME280;48102;47.526;19.072;2022-12-16T10:53:17;99403.34;;;5.10;100.00
62111;BME280;48102;47.526;19.072;2022-12-16T10:57:04;99410.81;;;5.18;100.00
62111;BME280;48102;47.526;19.072;2022-12-16T11:00:43;99408.16;;;5.19;100.00
62111;BME280;48102;47.526;19.072;2022-12-16T11:04:36;99401.06;;;5.23;100.00
62111;BME280;48102;47.526;19.072;2022-12-16T11:07:58;99407.31;;;5.19;100.00
62111;BME280;48102;47.526;19.072;2022-12-16T11:11:26;99406.28;;;5.23;100.00
62111;BME280;48102;47.526;19.072;2022-12-16T11:14:51;99406.72;;;5.33;100.00
62111;BME280;48102;47.526;19.072;2022-12-16T11:18:30;99408.41;;;5.34;100.00
62111;BME280;48102;47.526;19.072;2022-12-16T11:22:14;99416.19;;;5.35;100.00
62111;BME280;48102;47.526;19.072;2022-12-16T11:25:36;99416.56;;;5.26;100.00
62111;BME280;48102;47.526;19.072;2022-12-16T11:29:11;99419.53;;;5.18;100.00
62111;BME280;48102;47.526;19.072;2022-12-16T11:32:34;99425.31;;;5.04;100.00
62111;BME280;48102;47.526;19.072;2022-12-16T11:36:09;99437.59;;;5.02;100.00
62111;BME280;48102;47.526;19.072;2022-12-16T11:39:33;99434.19;;;5.00;100.00
62111;BME280;48102;47.526;19.072;2022-12-16T11:42:58;99446.88;;;5.10;100.00
62111;BME280;48102;47.526;19.072;2022-12-16T11:46:25;99453.47;;;4.98;100.00
62111;BME280;48102;47.526;19.072;2022-12-16T11:49:49;99466.91;;;4.89;100.00
62111;BME280;48102;47.526;19.072;2022-12-16T11:56:59;99496.88;;;4.78;100.00
62111;BME280;48102;47.526;19.072;2022-12-16T12:00:20;99504.84;;;4.75;100.00
62111;BME280;48102;47.526;19.072;2022-12-16T12:03:44;99503.63;;;4.62;100.00
62111;BME280;48102;47.526;19.072;2022-12-16T12:11:10;99504.28;;;4.67;100.00
62111;BME280;48102;47.526;19.072;2022-12-16T12:18:20;99490.87;;;4.76;100.00
62111;BME280;48102;47.526;19.072;2022-12-16T12:21:52;99465.44;;;4.82;100.00
62111;BME280;48102;47.526;19.072;2022-12-16T12:25:31;99442.59;;;4.87;100.00
62111;BME280;48102;47.526;19.072;2022-12-16T12:29:17;99445.81;;;4.93;100.00
62111;BME280;48102;47.526;19.072;2022-12-16T12:36:37;99438.03;;;4.92;100.00
62111;BME280;48102;47.526;19.072;2022-12-16T12:44:07;99443.31;;;4.90;100.00
62111;BME280;48102;47.526;19.072;2022-12-16T12:47:29;99452.81;;;4.93;100.00
62111;BME280;48102;47.526;19.072;2022-12-16T12:51:09;99469.13;;;4.98;100.00
62111;BME280;48102;47.526;19.072;2022-12-16T12:54:51;99463.53;;;5.07;100.00
62111;BME280;48102;47.526;19.072;2022-12-16T12:58:14;99472.16;;;5.29;100.00
62111;BME280;48102;47.526;19.072;2022-12-16T13:01:40;99479.41;;;5.43;100.00
62111;BME280;48102;47.526;19.072;2022-12-16T13:05:03;99502.59;;;5.51;100.00
62111;BME280;48102;47.526;19.072;2022-12-16T13:08:53;99511.75;;;5.41;100.00
62111;BME280;48102;47.526;19.072;2022-12-16T13:12:19;99507.28;;;5.43;100.00
62111;BME280;48102;47.526;19.072;2022-12-16T13:15:41;99504.16;;;5.55;100.00
62111;BME280;48102;47.526;19.072;2022-12-16T13:22:49;99495.34;;;5.37;100.00
62111;BME280;48102;47.526;19.072;2022-12-16T13:26:10;99495.47;;;5.34;100.00
62111;BME280;48102;47.526;19.072;2022-12-16T13:29:33;99483.00;;;5.20;100.00
62111;BME280;48102;47.526;19.072;2022-12-16T13:33:04;99477.19;;;5.34;100.00
62111;BME280;48102;47.526;19.072;2022-12-16T13:36:33;99496.28;;;5.36;100.00
62111;BME280;48102;47.526;19.072;2022-12-16T13:40:05;99502.19;;;5.19;100.00
62111;BME280;48102;47.526;19.072;2022-12-16T13:43:50;99518.44;;;5.06;100.00
62111;BME280;48102;47.526;19.072;2022-12-16T13:51:01;99539.53;;;4.99;100.00
62111;BME280;48102;47.526;19.072;2022-12-16T13:57:54;99548.47;;;4.72;100.00
62111;BME280;48102;47.526;19.072;2022-12-16T14:01:32;99555.28;;;4.76;100.00
62111;BME280;48102;47.526;19.072;2022-12-16T14:04:55;99577.66;;;4.82;100.00
62111;BME280;48102;47.526;19.072;2022-12-16T14:08:19;99590.03;;;4.76;100.00
62111;BME280;48102;47.526;19.072;2022-12-16T14:11:52;99592.59;;;4.78;100.00
62111;BME280;48102;47.526;19.072;2022-12-16T14:22:47;99576.72;;;4.84;100.00
62111;BME280;48102;47.526;19.072;2022-12-16T14:26:13;99573.13;;;4.87;100.00
62111;BME280;48102;47.526;19.072;2022-12-16T14:29:35;99568.06;;;4.82;100.00
62111;BME280;48102;47.526;19.072;2022-12-16T14:32:56;99553.59;;;4.75;100.00
62111;BME280;48102;47.526;19.072;2022-12-16T14:36:24;99559.75;;;4.72;100.00
62111;BME280;48102;47.526;19.072;2022-12-16T14:39:48;99577.06;;;4.75;100.00
62111;BME280;48102;47.526;19.072;2022-12-16T14:43:10;99586.81;;;4.70;100.00
62111;BME280;48102;47.526;19.072;2022-12-16T14:46:33;99601.03;;;4.61;100.00
62111;BME280;48102;47.526;19.072;2022-12-16T14:49:54;99603.91;;;4.55;100.00
62111;BME280;48102;47.526;19.072;2022-12-16T14:53:21;99601.47;;;4.50;100.00
62111;BME280;48102;47.526;19.072;2022-12-16T14:56:42;99607.59;;;4.49;100.00
62111;BME280;48102;47.526;19.072;2022-12-16T15:03:53;99614.34;;;4.55;100.00
62111;BME280;48102;47.526;19.072;2022-12-16T15:07:15;99613.34;;;4.58;100.00
62111;BME280;48102;47.526;19.072;2022-12-16T15:10:36;99597.00;;;4.54;100.00
62111;BME280;48102;47.526;19.072;2022-12-16T15:13:59;99594.59;;;4.48;100.00
62111;BME280;48102;47.526;19.072;2022-12-16T15:17:23;99609.38;;;4.47;100.00
62111;BME280;48102;47.526;19.072;2022-12-16T15:20:52;99619.81;;;4.47;100.00
62111;BME280;48102;47.526;19.072;2022-12-16T15:24:17;99616.03;;;4.33;100.00
62111;BME280;48102;47.526;19.072;2022-12-16T15:27:39;99632.25;;;4.41;100.00
62111;BME280;48102;47.526;19.072;2022-12-16T15:31:11;99634.38;;;4.30;100.00
62111;BME280;48102;47.526;19.072;2022-12-16T15:34:48;99663.16;;;4.26;100.00
62111;BME280;48102;47.526;19.072;2022-12-16T15:38:21;99674.84;;;4.16;100.00
62111;BME280;48102;47.526;19.072;2022-12-16T15:41:45;99687.81;;;4.18;100.00
62111;BME280;48102;47.526;19.072;2022-12-16T15:45:25;99685.31;;;4.15;100.00
62111;BME280;48102;47.526;19.072;2022-12-16T15:48:50;99702.00;;;4.09;100.00
62111;BME280;48102;47.526;19.072;2022-12-16T15:52:42;99715.25;;;4.03;100.00
62111;BME280;48102;47.526;19.072;2022-12-16T15:56:04;99714.56;;;3.98;100.00
62111;BME280;48102;47.526;19.072;2022-12-16T15:59:27;99706.78;;;3.96;100.00
62111;BME280;48102;47.526;19.072;2022-12-16T16:02:49;99712.91;;;3.95;100.00
62111;BME280;48102;47.526;19.072;2022-12-16T16:06:22;99712.91;;;3.95;100.00
62111;BME280;48102;47.526;19.072;2022-12-16T16:09:44;99693.81;;;3.95;100.00
62111;BME280;48102;47.526;19.072;2022-12-16T16:13:05;99697.78;;;3.80;100.00
62111;BME280;48102;47.526;19.072;2022-12-16T16:16:37;99694.41;;;3.76;100.00
62111;BME280;48102;47.526;19.072;2022-12-16T16:19:59;99688.22;;;3.79;100.00
